Time;durP1;ratioP1;P1;durP2;ratioP2;P2;SDS_P1;SDS_P2;PMS_P1;PMS_P2;Temp;Humidity;BMP_temperature;BMP_pressure;BME280_temperature;BME280_humidity;BME280_pressure;Samples;Min_cycle;Max_cycle;Signal;HPM_P1;HPM_P2
2022/09/25 05:01:54;;;;;;;5.40;5.00;;;;;;;;;;5397080;22;20946;-83
2022/09/25 05:04:20;;;;;;;5.20;4.80;;;;;;;;;;4981808;28;20410;-83
2022/09/25 05:06:46;;;;;;;5.78;5.38;;;;;;;;;;5065675;28;20838;-83
2022/09/25 05:09:12;;;;;;;5.35;4.75;;;;;;;;;;4979140;28;20466;-83
2022/09/25 05:11:38;;;;;;;5.82;5.25;;;;;;;;;;5031568;28;20387;-83
2022/09/25 05:14:04;;;;;;;5.25;4.85;;;;;;;;;;5072215;28;20413;-82
2022/09/25 05:16:30;;;;;;;5.40;4.90;;;;;;;;;;5072181;28;20812;-81
2022/09/25 05:18:56;;;;;;;5.32;4.85;;;;;;;;;;5071527;28;20388;-81
2022/09/25 05:21:22;;;;;;;5.07;4.68;;;;;;;;;;5071915;28;20387;-81
2022/09/25 05:23:49;;;;;;;5.72;5.13;;;;;;;;;;5072169;28;20896;-81
2022/09/25 05:26:15;;;;;;;5.45;5.05;;;;;;;;;;5071925;28;20867;-81
2022/09/25 05:28:41;;;;;;;5.43;5.03;;;;;;;;;;5072346;28;20384;-81
2022/09/25 05:31:07;;;;;;;5.47;5.07;;;;;;;;;;5071983;28;20425;-81
2022/09/25 05:33:34;;;;;;;5.60;5.10;;;;;;;;;;5071448;28;20381;-81
2022/09/25 05:36:04;;;;;;;6.57;6.07;;;;;;;;;;5071024;28;20948;-81
2022/09/25 05:38:33;;;;;;;6.00;5.60;;;;;;;;;;5063230;28;20380;-80
2022/09/25 05:41:03;;;;;;;6.75;5.63;;;;;;;;;;5065871;28;20387;-81
2022/09/25 05:43:30;;;;;;;6.70;6.10;;;;;;;;;;5063318;28;20413;-81
2022/09/25 05:45:56;;;;;;;5.60;5.18;;;;;;;;;;5047264;28;20394;-81
2022/09/25 05:48:23;;;;;;;6.90;6.30;;;;;;;;;;5071966;28;20802;-81
2022/09/25 05:50:52;;;;;;;7.03;6.43;;;;;;;;;;5071895;28;20382;-80
2022/09/25 05:53:18;;;;;;;7.43;6.72;;;;;;;;;;5071363;28;20400;-81
2022/09/25 05:55:54;;;;;;;8.43;7.20;;;;;;;;;;5071573;28;20453;-81
2022/09/25 05:58:23;;;;;;;8.97;7.57;;;;;;;;;;5074224;28;20439;-81
2022/09/25 06:00:49;;;;;;;10.73;8.52;;;;;;;;;;5071392;28;20402;-81
2022/09/25 06:03:15;;;;;;;13.48;9.88;;;;;;;;;;5071542;28;20445;-81
2022/09/25 06:05:41;;;;;;;13.25;10.35;;;;;;;;;;5071606;28;20402;-81
2022/09/25 06:08:08;;;;;;;13.57;10.13;;;;;;;;;;5072007;28;20386;-81
2022/09/25 06:10:34;;;;;;;13.55;10.23;;;;;;;;;;5071419;28;20429;-81
2022/09/25 06:13:01;;;;;;;15.52;9.88;;;;;;;;;;5069549;28;20375;-81
2022/09/25 06:15:27;;;;;;;12.45;10.15;;;;;;;;;;5071267;28;20429;-82
2022/09/25 06:17:54;;;;;;;16.23;11.38;;;;;;;;;;5070937;28;20840;-82
2022/09/25 06:20:21;;;;;;;15.80;11.50;;;;;;;;;;5070673;28;20421;-82
2022/09/25 06:22:54;;;;;;;18.75;13.55;;;;;;;;;;5070485;28;20420;-82
2022/09/25 06:25:22;;;;;;;24.38;16.20;;;;;;;;;;5075385;28;20399;-82
2022/09/25 06:27:48;;;;;;;21.85;13.75;;;;;;;;;;5074563;28;20895;-82
2022/09/25 06:30:14;;;;;;;19.65;12.60;;;;;;;;;;5075116;28;20383;-79
2022/09/25 06:32:40;;;;;;;19.90;13.75;;;;;;;;;;5074838;28;20372;-80
2022/09/25 06:35:07;;;;;;;20.90;13.43;;;;;;;;;;5074736;28;20441;-80
2022/09/25 06:37:33;;;;;;;20.40;13.32;;;;;;;;;;5073650;28;20638;-80
2022/09/25 06:39:59;;;;;;;21.75;14.18;;;;;;;;;;5073656;28;20415;-80
2022/09/25 06:42:25;;;;;;;18.83;13.20;;;;;;;;;;5073225;28;20408;-79
2022/09/25 06:44:51;;;;;;;15.57;10.98;;;;;;;;;;5073312;28;20447;-79
2022/09/25 06:47:17;;;;;;;9.77;8.77;;;;;;;;;;5073062;28;20372;-80
2022/09/25 06:49:43;;;;;;;12.85;9.90;;;;;;;;;;5074590;28;20420;-79
2022/09/25 06:52:09;;;;;;;12.25;9.38;;;;;;;;;;5074375;28;20411;-79
2022/09/25 06:54:35;;;;;;;9.18;8.10;;;;;;;;;;5074429;28;20379;-79
2022/09/25 06:57:01;;;;;;;10.00;8.10;;;;;;;;;;5074351;28;20388;-80
2022/09/25 06:59:27;;;;;;;12.52;8.48;;;;;;;;;;5084684;28;20468;-80
2022/09/25 07:01:53;;;;;;;12.77;9.20;;;;;;;;;;5090855;28;20724;-80
2022/09/25 07:04:19;;;;;;;11.85;9.57;;;;;;;;;;5074224;28;20438;-81
2022/09/25 07:06:47;;;;;;;10.00;9.00;;;;;;;;;;5074236;28;20501;-81
2022/09/25 07:09:13;;;;;;;10.75;8.77;;;;;;;;;;5074203;28;20368;-81
2022/09/25 07:11:42;;;;;;;9.20;8.23;;;;;;;;;;5073314;28;20717;-80
2022/09/25 07:14:09;;;;;;;7.63;6.55;;;;;;;;;;4987811;28;20791;-81
2022/09/25 07:16:35;;;;;;;6.70;6.10;;;;;;;;;;5074619;28;20434;-81
2022/09/25 07:19:03;;;;;;;6.60;5.85;;;;;;;;;;5074088;28;20391;-81
2022/09/25 07:21:30;;;;;;;6.43;5.90;;;;;;;;;;5068332;28;20759;-82
2022/09/25 07:23:57;;;;;;;5.75;5.30;;;;;;;;;;5073489;28;20411;-83
2022/09/25 07:26:27;;;;;;;5.63;5.22;;;;;;;;;;5073905;28;20783;-82
2022/09/25 07:29:05;;;;;;;5.60;5.10;;;;;;;;;;5073281;28;20376;-81
2022/09/25 07:31:32;;;;;;;5.85;5.35;;;;;;;;;;5073738;28;20391;-83
2022/09/25 07:33:59;;;;;;;6.53;5.60;;;;;;;;;;5073509;28;20380;-82
2022/09/25 07:36:25;;;;;;;6.07;5.57;;;;;;;;;;5073170;28;20376;-82
2022/09/25 07:38:51;;;;;;;5.60;5.20;;;;;;;;;;5081328;28;20423;-82
2022/09/25 07:41:18;;;;;;;5.70;5.20;;;;;;;;;;5089262;28;20378;-82
2022/09/25 07:43:44;;;;;;;6.80;6.15;;;;;;;;;;5070250;28;20413;-82
2022/09/25 07:46:11;;;;;;;6.75;6.13;;;;;;;;;;5073431;28;20411;-81
2022/09/25 07:48:37;;;;;;;6.32;5.82;;;;;;;;;;5073150;28;20380;-81
2022/09/25 07:51:04;;;;;;;7.03;6.00;;;;;;;;;;5073520;28;20383;-82
2022/09/25 07:53:30;;;;;;;6.70;6.10;;;;;;;;;;5075652;28;20409;-82
2022/09/25 07:56:00;;;;;;;8.18;7.30;;;;;;;;;;5073234;28;20371;-82
2022/09/25 07:58:26;;;;;;;8.60;7.70;;;;;;;;;;5073219;28;20447;-81
2022/09/25 08:00:59;;;;;;;8.40;7.30;;;;;;;;;;5073203;28;20475;-81
2022/09/25 08:03:25;;;;;;;7.82;7.13;;;;;;;;;;5073006;28;20379;-81
2022/09/25 08:05:59;;;;;;;7.78;7.03;;;;;;;;;;5070830;28;20418;-80
2022/09/25 08:08:26;;;;;;;7.37;6.67;;;;;;;;;;5071826;28;20379;-80
2022/09/25 08:10:52;;;;;;;7.90;7.10;;;;;;;;;;5071801;28;20384;-80
2022/09/25 08:13:20;;;;;;;7.20;6.50;;;;;;;;;;5071927;28;20384;-80
2022/09/25 08:15:47;;;;;;;7.73;6.90;;;;;;;;;;5071785;28;20379;-80
2022/09/25 08:18:13;;;;;;;7.90;7.10;;;;;;;;;;5071928;28;20933;-80
2022/09/25 08:20:39;;;;;;;6.82;6.22;;;;;;;;;;5071405;28;20372;-80
2022/09/25 08:23:06;;;;;;;8.00;7.20;;;;;;;;;;5035391;28;21055;-80
2022/09/25 08:25:32;;;;;;;7.75;7.05;;;;;;;;;;5075584;28;20490;-80
2022/09/25 08:27:58;;;;;;;9.65;8.18;;;;;;;;;;5074288;28;20372;-80
2022/09/25 08:30:24;;;;;;;9.80;8.57;;;;;;;;;;5071157;28;20384;-83
2022/09/25 08:32:51;;;;;;;9.98;8.93;;;;;;;;;;5075317;28;20468;-81
2022/09/25 08:35:17;;;;;;;9.25;8.32;;;;;;;;;;5069264;28;20372;-82
2022/09/25 08:37:47;;;;;;;10.38;8.75;;;;;;;;;;5071587;28;20376;-81
2022/09/25 08:40:20;;;;;;;9.70;8.70;;;;;;;;;;5071217;28;20376;-81
2022/09/25 08:42:48;;;;;;;9.73;8.80;;;;;;;;;;5071454;28;20748;-81
2022/09/25 08:51:07;;;;;;;9.23;8.33;;;;;;;;;;5069735;28;20889;-81
2022/09/25 08:53:33;;;;;;;9.63;8.63;;;;;;;;;;5070817;28;20382;-81
2022/09/25 08:56:18;;;;;;;9.50;8.55;;;;;;;;;;5071086;28;20490;-82
2022/09/25 08:58:55;;;;;;;10.90;9.68;;;;;;;;;;5071420;28;20383;-81
2022/09/25 09:01:26;;;;;;;9.23;8.32;;;;;;;;;;5066330;28;20380;-81
2022/09/25 09:03:52;;;;;;;9.70;8.60;;;;;;;;;;5070078;28;20395;-81
2022/09/25 09:06:18;;;;;;;9.07;8.18;;;;;;;;;;5071210;28;20398;-81
2022/09/25 09:08:48;;;;;;;8.00;7.20;;;;;;;;;;5064698;28;20413;-82
2022/09/25 09:11:23;;;;;;;7.15;6.55;;;;;;;;;;5056470;28;20393;-81
2022/09/25 09:13:51;;;;;;;9.68;8.48;;;;;;;;;;5071011;28;20388;-81
2022/09/25 09:16:23;;;;;;;8.40;7.70;;;;;;;;;;5071200;28;20488;-82
2022/09/25 09:18:49;;;;;;;8.17;7.37;;;;;;;;;;5043965;28;20406;-81
2022/09/25 09:21:21;;;;;;;8.98;8.07;;;;;;;;;;5071870;28;20402;-80
2022/09/25 09:24:06;;;;;;;8.73;7.93;;;;;;;;;;5072201;28;20411;-80
2022/09/25 09:26:42;;;;;;;7.80;7.10;;;;;;;;;;5072149;28;20379;-82
2022/09/25 09:29:27;;;;;;;8.50;7.47;;;;;;;;;;4986040;28;20388;-80
2022/09/25 09:31:56;;;;;;;8.10;7.40;;;;;;;;;;5070360;28;20386;-80
2022/09/25 09:34:30;;;;;;;7.10;6.50;;;;;;;;;;5070297;28;20380;-80
2022/09/25 09:37:05;;;;;;;7.63;7.03;;;;;;;;;;5071086;28;20405;-80
2022/09/25 09:39:41;;;;;;;8.20;7.47;;;;;;;;;;5062196;28;20893;-80
2022/09/25 09:42:16;;;;;;;7.90;7.20;;;;;;;;;;5069992;28;20386;-80
2022/09/25 09:44:42;;;;;;;8.55;7.78;;;;;;;;;;5077096;28;20420;-80
2022/09/25 09:47:27;;;;;;;8.63;7.93;;;;;;;;;;5072542;28;20387;-80
2022/09/25 09:49:55;;;;;;;7.93;7.32;;;;;;;;;;5074108;28;20379;-80
2022/09/25 09:52:23;;;;;;;9.10;8.33;;;;;;;;;;5073775;28;20457;-80
2022/09/25 09:54:57;;;;;;;8.30;7.60;;;;;;;;;;5070375;28;20383;-80
2022/09/25 09:57:30;;;;;;;9.10;8.30;;;;;;;;;;5077219;28;20382;-80
2022/09/25 09:59:58;;;;;;;9.27;8.48;;;;;;;;;;5076860;28;20383;-82
2022/09/25 10:02:34;;;;;;;8.73;8.02;;;;;;;;;;5071515;28;20773;-82
2022/09/25 10:05:02;;;;;;;9.07;8.23;;;;;;;;;;5061987;28;20450;-82
2022/09/25 10:07:29;;;;;;;9.00;8.20;;;;;;;;;;5064934;28;20397;-82
2022/09/25 10:09:55;;;;;;;7.80;7.10;;;;;;;;;;5063006;28;20389;-80
2022/09/25 10:12:37;;;;;;;8.00;7.30;;;;;;;;;;5071601;28;20441;-79
2022/09/25 10:15:04;;;;;;;7.27;6.67;;;;;;;;;;5080793;28;20460;-79
2022/09/25 10:17:31;;;;;;;6.63;6.10;;;;;;;;;;5075046;28;20891;-83
2022/09/25 10:19:59;;;;;;;6.38;5.88;;;;;;;;;;5074466;28;20890;-82
2022/09/25 10:22:37;;;;;;;5.70;5.20;;;;;;;;;;5076643;28;20390;-81
2022/09/25 10:25:05;;;;;;;5.88;5.45;;;;;;;;;;5070487;28;20400;-79
2022/09/25 10:27:34;;;;;;;5.70;5.20;;;;;;;;;;5068068;28;20376;-79
2022/09/25 10:30:05;;;;;;;5.90;5.40;;;;;;;;;;5075116;28;20475;-79
2022/09/25 10:32:41;;;;;;;5.80;5.30;;;;;;;;;;5073405;28;20375;-79
2022/09/25 10:35:13;;;;;;;5.90;5.40;;;;;;;;;;5010584;28;20409;-78
2022/09/25 10:37:40;;;;;;;6.13;5.63;;;;;;;;;;5059536;28;20727;-78
2022/09/25 10:40:21;;;;;;;5.90;5.40;;;;;;;;;;5056349;28;20924;-79
2022/09/25 10:42:47;;;;;;;4.60;4.20;;;;;;;;;;5067539;28;20372;-78
2022/09/25 10:45:39;;;;;;;4.53;4.13;;;;;;;;;;5074478;28;20407;-78
2022/09/25 10:51:16;;;;;;;5.32;4.80;;;;;;;;;;5074187;28;20386;-79
2022/09/25 10:53:42;;;;;;;5.53;5.03;;;;;;;;;;5071796;28;20392;-78
2022/09/25 10:56:11;;;;;;;4.93;4.53;;;;;;;;;;5073103;28;20441;-79
2022/09/25 10:58:37;;;;;;;5.33;4.70;;;;;;;;;;5074733;28;20732;-81
2022/09/25 11:01:03;;;;;;;4.88;4.47;;;;;;;;;;5074596;28;21188;-79
2022/09/25 11:03:53;;;;;;;4.68;4.28;;;;;;;;;;5073938;28;20383;-80
2022/09/25 11:06:19;;;;;;;5.20;4.53;;;;;;;;;;5049635;28;20387;-79
2022/09/25 11:08:48;;;;;;;5.78;5.28;;;;;;;;;;5074068;28;20375;-78
2022/09/25 11:11:20;;;;;;;6.30;5.80;;;;;;;;;;5072018;28;20915;-78
2022/09/25 11:13:47;;;;;;;6.13;5.63;;;;;;;;;;5073736;28;20380;-79
2022/09/25 11:16:13;;;;;;;6.07;5.57;;;;;;;;;;5073890;28;20379;-81
2022/09/25 11:18:41;;;;;;;5.10;4.60;;;;;;;;;;5074215;28;20383;-80
2022/09/25 11:21:18;;;;;;;4.82;4.43;;;;;;;;;;5073931;28;20391;-81
2022/09/25 11:24:00;;;;;;;5.28;4.88;;;;;;;;;;5005058;28;20406;-80
2022/09/25 11:26:29;;;;;;;5.13;4.63;;;;;;;;;;5064332;28;20470;-82
2022/09/25 11:28:56;;;;;;;5.40;5.00;;;;;;;;;;5073654;28;20376;-82
2022/09/25 11:31:22;;;;;;;5.23;4.83;;;;;;;;;;5073978;28;20379;-83
2022/09/25 11:33:54;;;;;;;4.85;4.55;;;;;;;;;;5073784;28;20406;-82
2022/09/25 11:36:28;;;;;;;5.07;4.68;;;;;;;;;;5073768;28;20394;-83
2022/09/25 11:41:44;;;;;;;6.03;5.53;;;;;;;;;;5073956;28;20425;-82
2022/09/25 11:44:27;;;;;;;4.78;4.30;;;;;;;;;;5076518;28;20404;-82
2022/09/25 11:47:00;;;;;;;5.15;4.65;;;;;;;;;;5073974;28;20379;-83
2022/09/25 11:49:30;;;;;;;5.25;4.75;;;;;;;;;;5073839;28;20396;-82
2022/09/25 11:52:15;;;;;;;5.30;4.80;;;;;;;;;;4988048;28;20799;-82
2022/09/25 11:54:59;;;;;;;4.90;4.50;;;;;;;;;;5073444;28;20464;-82
2022/09/25 11:57:31;;;;;;;4.55;4.15;;;;;;;;;;5073785;28;20388;-82
2022/09/25 12:00:00;;;;;;;4.27;3.90;;;;;;;;;;5073553;28;20396;-81
2022/09/25 12:02:26;;;;;;;4.78;4.38;;;;;;;;;;5073280;28;20396;-82
2022/09/25 12:04:58;;;;;;;4.50;4.20;;;;;;;;;;5073067;28;20418;-82
2022/09/25 12:07:39;;;;;;;4.38;3.97;;;;;;;;;;5073408;28;20383;-83
2022/09/25 12:10:24;;;;;;;4.75;4.35;;;;;;;;;;5073083;28;20853;-83
2022/09/25 12:12:50;;;;;;;4.10;3.80;;;;;;;;;;5072996;28;20429;-82
2022/09/25 12:15:19;;;;;;;3.78;3.47;;;;;;;;;;5072514;28;20380;-82
2022/09/25 12:17:54;;;;;;;3.70;3.40;;;;;;;;;;5073069;28;20380;-82
2022/09/25 12:20:40;;;;;;;3.78;3.47;;;;;;;;;;5072684;28;20384;-82
2022/09/25 12:23:12;;;;;;;3.80;3.50;;;;;;;;;;5071882;28;21579;-82
2022/09/25 12:25:46;;;;;;;3.73;3.43;;;;;;;;;;5072331;28;20395;-82
2022/09/25 12:28:24;;;;;;;3.45;3.25;;;;;;;;;;5072935;28;20837;-82
2022/09/25 12:31:13;;;;;;;3.70;3.40;;;;;;;;;;5072714;28;20447;-82
2022/09/25 12:33:51;;;;;;;3.40;3.10;;;;;;;;;;5072702;28;20476;-82
2022/09/25 12:36:46;;;;;;;3.40;3.10;;;;;;;;;;5072718;28;20384;-82
2022/09/25 12:39:15;;;;;;;3.30;3.00;;;;;;;;;;5055545;28;20999;-83
2022/09/25 12:41:45;;;;;;;2.90;2.70;;;;;;;;;;5072671;28;20459;-83
2022/09/25 12:44:11;;;;;;;3.63;3.33;;;;;;;;;;5072441;28;20870;-82
2022/09/25 12:46:42;;;;;;;3.40;3.10;;;;;;;;;;5072783;28;20410;-82
2022/09/25 12:49:10;;;;;;;3.30;3.10;;;;;;;;;;5072824;28;20368;-82
2022/09/25 12:51:41;;;;;;;5.40;5.00;;;;;;;;;;5072434;28;20375;-82
2022/09/25 12:54:21;;;;;;;3.15;2.90;;;;;;;;;;5072426;28;20384;-83
2022/09/25 12:56:48;;;;;;;3.10;2.80;;;;;;;;;;5072533;28;20406;-82
2022/09/25 12:59:14;;;;;;;3.35;3.05;;;;;;;;;;5071932;28;20868;-81
2022/09/25 13:01:45;;;;;;;3.20;3.00;;;;;;;;;;5072381;28;20478;-82
2022/09/25 13:04:23;;;;;;;3.00;2.80;;;;;;;;;;5072559;28;20491;-83
2022/09/25 13:06:52;;;;;;;3.30;2.97;;;;;;;;;;5072245;28;20372;-82
2022/09/25 13:09:38;;;;;;;3.40;3.10;;;;;;;;;;5072314;28;20433;-82
2022/09/25 13:12:08;;;;;;;3.40;3.10;;;;;;;;;;5058892;28;20411;-82
2022/09/25 13:14:53;;;;;;;3.42;3.13;;;;;;;;;;5072233;28;20384;-82
2022/09/25 13:17:19;;;;;;;3.35;3.05;;;;;;;;;;5072396;28;20383;-82
2022/09/25 13:19:45;;;;;;;3.15;2.83;;;;;;;;;;5072183;28;20475;-82
2022/09/25 13:22:23;;;;;;;3.35;3.05;;;;;;;;;;5072234;28;20399;-83
2022/09/25 13:24:56;;;;;;;4.15;3.15;;;;;;;;;;5072335;28;20755;-82
2022/09/25 13:27:23;;;;;;;3.50;3.20;;;;;;;;;;5072352;28;20412;-82
2022/09/25 13:29:52;;;;;;;3.33;3.13;;;;;;;;;;5072123;28;20930;-82
2022/09/25 13:32:18;;;;;;;3.45;3.15;;;;;;;;;;5072643;28;20387;-82
2022/09/25 13:34:45;;;;;;;3.25;2.95;;;;;;;;;;5076191;28;20382;-82
2022/09/25 13:37:15;;;;;;;3.75;3.45;;;;;;;;;;5076171;28;20384;-81
2022/09/25 13:42:26;;;;;;;3.72;3.42;;;;;;;;;;5078457;28;20407;-81
2022/09/25 13:45:05;;;;;;;4.20;3.75;;;;;;;;;;5076005;28;20447;-81
2022/09/25 13:47:31;;;;;;;3.88;3.58;;;;;;;;;;5075897;28;20372;-82
2022/09/25 13:49:59;;;;;;;3.90;3.60;;;;;;;;;;5075679;28;20380;-82
2022/09/25 13:53:15;;;;;;;3.75;3.45;;;;;;;;;;5067551;28;20468;-82
2022/09/25 13:55:40;;;;;;;3.63;3.23;;;;;;;;;;5075579;28;20407;-81
2022/09/25 13:58:19;;;;;;;3.57;3.00;;;;;;;;;;5075712;28;20379;-81
2022/09/25 14:00:52;;;;;;;3.63;3.33;;;;;;;;;;5075573;28;20844;-81
2022/09/25 14:03:42;;;;;;;3.40;3.10;;;;;;;;;;5075743;28;20388;-82
2022/09/25 14:06:16;;;;;;;3.10;2.80;;;;;;;;;;5069675;28;20388;-82
2022/09/25 14:08:43;;;;;;;2.80;2.50;;;;;;;;;;5073833;28;20401;-82
2022/09/25 14:11:10;;;;;;;4.37;3.40;;;;;;;;;;5075338;28;20399;-82
2022/09/25 14:13:38;;;;;;;4.70;2.90;;;;;;;;;;5075452;28;20429;-82
2022/09/25 14:16:21;;;;;;;3.20;2.90;;;;;;;;;;5075373;28;20382;-82
2022/09/25 14:18:48;;;;;;;2.95;2.75;;;;;;;;;;5081538;28;20445;-82
2022/09/25 14:21:15;;;;;;;2.60;2.40;;;;;;;;;;5032735;28;20387;-82
2022/09/25 14:23:50;;;;;;;2.55;2.35;;;;;;;;;;5075114;28;20398;-82
2022/09/25 14:26:21;;;;;;;3.53;2.80;;;;;;;;;;5075433;28;20729;-81
2022/09/25 14:28:47;;;;;;;3.35;2.70;;;;;;;;;;5074659;28;20383;-81
2022/09/25 14:31:13;;;;;;;3.50;2.70;;;;;;;;;;5075174;28;20991;-82
2022/09/25 14:33:45;;;;;;;3.17;2.70;;;;;;;;;;5075205;28;20376;-82
2022/09/25 14:36:27;;;;;;;3.85;2.75;;;;;;;;;;5075414;28;20376;-82
2022/09/25 14:39:05;;;;;;;3.10;2.80;;;;;;;;;;5075321;28;20375;-82
2022/09/25 14:41:34;;;;;;;2.80;2.60;;;;;;;;;;5075121;28;20391;-82
2022/09/25 14:44:20;;;;;;;2.60;2.40;;;;;;;;;;5073943;28;20403;-82
2022/09/25 14:46:48;;;;;;;2.83;2.63;;;;;;;;;;5074906;28;20372;-82
2022/09/25 14:49:27;;;;;;;3.25;2.95;;;;;;;;;;5074819;28;20399;-82
2022/09/25 14:51:54;;;;;;;3.00;2.80;;;;;;;;;;5074039;28;20844;-82
2022/09/25 14:54:22;;;;;;;2.90;2.70;;;;;;;;;;5074282;28;20728;-82
2022/09/25 14:56:50;;;;;;;3.63;3.00;;;;;;;;;;5074884;28;20394;-82
2022/09/25 14:59:18;;;;;;;4.45;2.90;;;;;;;;;;5074658;28;20387;-81
2022/09/25 15:01:53;;;;;;;3.75;3.45;;;;;;;;;;5074644;28;20486;-81
2022/09/25 15:04:27;;;;;;;3.57;3.00;;;;;;;;;;5074609;28;20454;-82
2022/09/25 15:07:08;;;;;;;3.50;2.83;;;;;;;;;;5074579;28;20408;-82
2022/09/25 15:09:36;;;;;;;3.75;3.35;;;;;;;;;;5074459;28;20407;-82
2022/09/25 15:12:16;;;;;;;3.78;3.47;;;;;;;;;;5074430;28;20372;-82
2022/09/25 15:15:01;;;;;;;3.85;3.45;;;;;;;;;;5074369;28;20371;-82
2022/09/25 15:17:28;;;;;;;4.35;3.95;;;;;;;;;;5076157;28;20380;-82
2022/09/25 15:19:54;;;;;;;5.20;4.80;;;;;;;;;;5074087;28;20391;-82
2022/09/25 15:22:23;;;;;;;5.30;4.80;;;;;;;;;;5074386;28;20391;-82
2022/09/25 15:24:57;;;;;;;4.80;4.40;;;;;;;;;;5074186;28;20969;-82
2022/09/25 15:27:24;;;;;;;5.20;4.03;;;;;;;;;;5073615;28;20383;-82
2022/09/25 15:29:50;;;;;;;5.03;4.63;;;;;;;;;;5074063;28;20383;-82
2022/09/25 15:32:17;;;;;;;4.78;4.38;;;;;;;;;;5073834;28;20380;-82
2022/09/25 15:34:43;;;;;;;4.90;4.40;;;;;;;;;;4987726;28;20396;-82
2022/09/25 15:37:26;;;;;;;4.95;4.30;;;;;;;;;;5074051;28;20737;-82
2022/09/25 15:39:53;;;;;;;4.78;4.28;;;;;;;;;;5073870;28;20732;-82
2022/09/25 15:42:19;;;;;;;4.53;4.13;;;;;;;;;;4988312;28;20436;-82
2022/09/25 15:44:45;;;;;;;4.13;3.83;;;;;;;;;;5079530;28;20437;-82
2022/09/25 15:47:31;;;;;;;5.60;5.10;;;;;;;;;;5078644;28;20379;-82
2022/09/25 15:49:57;;;;;;;5.70;5.28;;;;;;;;;;5073587;28;20462;-82
2022/09/25 15:52:26;;;;;;;5.90;5.40;;;;;;;;;;5073382;28;20407;-82
2022/09/25 15:54:52;;;;;;;5.50;5.10;;;;;;;;;;5073459;28;20435;-82
2022/09/25 15:57:26;;;;;;;6.25;4.93;;;;;;;;;;5073353;28;20402;-82
2022/09/25 16:05:45;;;;;;;5.85;5.25;;;;;;;;;;5073223;28;20481;-82
2022/09/25 16:08:14;;;;;;;5.60;5.10;;;;;;;;;;5073250;28;20379;-82
2022/09/25 16:10:41;;;;;;;6.30;5.00;;;;;;;;;;5073077;28;20394;-82
2022/09/25 16:13:18;;;;;;;6.20;5.70;;;;;;;;;;4987051;28;20391;-80
2022/09/25 16:15:51;;;;;;;6.25;5.72;;;;;;;;;;5073278;28;20384;-85
2022/09/25 16:18:23;;;;;;;6.15;5.55;;;;;;;;;;5072910;28;20387;-84
2022/09/25 16:20:57;;;;;;;5.73;5.23;;;;;;;;;;5072406;28;20466;-85
2022/09/25 16:23:28;;;;;;;6.30;5.80;;;;;;;;;;5072762;28;20380;-84
2022/09/25 16:25:56;;;;;;;5.60;5.18;;;;;;;;;;5072890;28;20879;-86
2022/09/25 16:28:25;;;;;;;6.20;5.60;;;;;;;;;;5073186;28;20372;-87
2022/09/25 16:31:09;;;;;;;5.78;5.38;;;;;;;;;;4987682;28;20744;-90
2022/09/25 16:33:40;;;;;;;6.88;6.28;;;;;;;;;;4987781;28;20860;-88
2022/09/25 16:36:14;;;;;;;8.45;7.63;;;;;;;;;;5070078;28;20419;-89
2022/09/25 16:38:40;;;;;;;5.53;5.13;;;;;;;;;;5072881;28;20469;-89
2022/09/25 16:41:09;;;;;;;5.40;4.90;;;;;;;;;;5073111;28;20368;-90
2022/09/25 16:43:38;;;;;;;5.00;4.70;;;;;;;;;;5060027;28;20383;-90
2022/09/25 16:46:12;;;;;;;5.85;5.25;;;;;;;;;;5061439;28;20384;-91
2022/09/25 16:48:39;;;;;;;6.22;5.63;;;;;;;;;;5053297;28;20369;-89
2022/09/25 16:51:10;;;;;;;5.50;5.10;;;;;;;;;;5072512;28;20374;-89
2022/09/25 16:53:37;;;;;;;5.90;5.40;;;;;;;;;;5072972;28;20815;-87
2022/09/25 16:56:03;;;;;;;5.90;5.40;;;;;;;;;;5072677;28;20471;-87
2022/09/25 16:58:29;;;;;;;5.78;5.28;;;;;;;;;;5071977;28;20380;-87
2022/09/25 17:00:55;;;;;;;6.23;5.73;;;;;;;;;;5072639;28;20946;-86
2022/09/25 17:03:21;;;;;;;6.35;5.85;;;;;;;;;;5070739;28;20388;-88
2022/09/25 17:05:48;;;;;;;6.68;6.18;;;;;;;;;;5071706;28;20449;-85
2022/09/25 17:08:16;;;;;;;6.63;6.13;;;;;;;;;;5071595;28;20380;-85
2022/09/25 17:10:42;;;;;;;7.03;6.53;;;;;;;;;;5065732;28;20429;-83
2022/09/25 17:13:09;;;;;;;6.80;6.25;;;;;;;;;;5078133;28;20384;-85
2022/09/25 17:15:36;;;;;;;7.72;6.93;;;;;;;;;;5073304;28;20384;-86
2022/09/25 17:18:02;;;;;;;7.15;6.55;;;;;;;;;;5070605;28;20401;-85
2022/09/25 17:20:29;;;;;;;7.15;6.60;;;;;;;;;;5047918;28;21043;-85
2022/09/25 17:22:56;;;;;;;10.05;9.25;;;;;;;;;;5057753;28;20393;-85
2022/09/25 17:25:22;;;;;;;10.13;9.13;;;;;;;;;;5067985;28;20418;-86
2022/09/25 17:27:48;;;;;;;10.07;9.23;;;;;;;;;;5071002;28;20379;-86
2022/09/25 17:30:14;;;;;;;10.82;9.93;;;;;;;;;;5070568;28;20388;-86
2022/09/25 17:32:41;;;;;;;11.48;10.57;;;;;;;;;;5071370;28;20391;-86
2022/09/25 17:35:21;;;;;;;8.85;8.15;;;;;;;;;;5071016;28;20384;-85
2022/09/25 17:37:47;;;;;;;8.05;7.35;;;;;;;;;;5068361;28;20376;-85
2022/09/25 17:40:13;;;;;;;8.70;8.00;;;;;;;;;;5052237;28;20743;-84
2022/09/25 17:42:39;;;;;;;7.35;6.75;;;;;;;;;;5055509;28;20388;-85
2022/09/25 17:45:24;;;;;;;6.47;5.97;;;;;;;;;;5051187;28;21228;-85
2022/09/25 17:47:51;;;;;;;6.83;6.23;;;;;;;;;;5033057;28;20862;-84
2022/09/25 17:50:17;;;;;;;6.10;5.60;;;;;;;;;;5061920;28;20397;-86
2022/09/25 17:52:43;;;;;;;6.23;5.77;;;;;;;;;;5071963;28;20380;-87
2022/09/25 17:55:15;;;;;;;7.00;6.50;;;;;;;;;;5024055;28;20393;-86
2022/09/25 17:57:41;;;;;;;7.90;7.30;;;;;;;;;;5055928;28;20412;-85
2022/09/25 18:00:08;;;;;;;6.72;6.22;;;;;;;;;;5066056;28;20862;-86
2022/09/25 18:02:34;;;;;;;6.85;6.35;;;;;;;;;;5068152;28;20816;-86
2022/09/25 18:05:01;;;;;;;5.90;5.50;;;;;;;;;;5059301;28;20408;-85
2022/09/25 18:07:27;;;;;;;7.30;6.80;;;;;;;;;;5052877;28;20468;-86
2022/09/25 18:09:53;;;;;;;7.32;6.63;;;;;;;;;;5041032;28;20481;-85
2022/09/25 18:12:19;;;;;;;7.60;7.00;;;;;;;;;;5044232;28;20869;-84
2022/09/25 18:14:45;;;;;;;7.53;6.97;;;;;;;;;;5052883;28;20400;-85
2022/09/25 18:17:13;;;;;;;8.50;7.90;;;;;;;;;;5051563;28;20439;-87
2022/09/25 18:22:24;;;;;;;7.72;7.22;;;;;;;;;;5062431;28;20438;-85
2022/09/25 18:24:53;;;;;;;9.88;8.98;;;;;;;;;;5074735;28;20396;-85
2022/09/25 18:27:19;;;;;;;9.77;8.70;;;;;;;;;;5075067;28;20398;-85
2022/09/25 18:29:46;;;;;;;18.30;13.88;;;;;;;;;;5075194;28;20379;-84
2022/09/25 18:32:12;;;;;;;8.20;7.50;;;;;;;;;;5075187;28;20464;-85
2022/09/25 18:34:38;;;;;;;6.95;6.35;;;;;;;;;;5075202;28;20380;-85
2022/09/25 18:37:04;;;;;;;5.82;5.40;;;;;;;;;;5075817;28;20391;-85
2022/09/25 18:39:30;;;;;;;5.72;5.32;;;;;;;;;;5075370;28;20384;-85
2022/09/25 18:41:56;;;;;;;6.40;5.90;;;;;;;;;;5056208;28;20454;-85
2022/09/25 18:44:22;;;;;;;6.53;6.03;;;;;;;;;;5058967;28;20965;-84
2022/09/25 18:46:49;;;;;;;7.10;6.43;;;;;;;;;;5055055;28;20854;-85
2022/09/25 18:49:15;;;;;;;7.93;7.32;;;;;;;;;;5048427;28;20402;-85
2022/09/25 18:51:41;;;;;;;8.18;7.57;;;;;;;;;;5034383;28;20401;-87
2022/09/25 18:54:08;;;;;;;8.82;8.02;;;;;;;;;;5056222;28;20385;-86
2022/09/25 18:56:34;;;;;;;8.80;8.10;;;;;;;;;;5074565;28;20402;-86
2022/09/25 18:59:03;;;;;;;9.38;8.60;;;;;;;;;;5074608;28;20390;-86
2022/09/25 19:01:30;;;;;;;9.60;8.80;;;;;;;;;;5074541;28;20394;-87
2022/09/25 19:03:56;;;;;;;9.75;8.95;;;;;;;;;;5074585;28;20410;-87
2022/09/25 19:06:22;;;;;;;9.60;8.70;;;;;;;;;;5074420;28;20372;-86
2022/09/25 19:08:55;;;;;;;10.48;9.57;;;;;;;;;;5073946;28;20368;-86
2022/09/25 19:11:22;;;;;;;9.77;8.98;;;;;;;;;;4987957;28;20406;-86
2022/09/25 19:13:48;;;;;;;8.93;8.13;;;;;;;;;;5074393;28;20375;-86
2022/09/25 19:16:15;;;;;;;9.27;8.50;;;;;;;;;;5074364;28;20384;-86
2022/09/25 19:18:42;;;;;;;9.18;8.40;;;;;;;;;;5074323;28;20378;-86
2022/09/25 19:21:12;;;;;;;9.00;8.30;;;;;;;;;;5074225;28;20368;-87
2022/09/25 19:23:38;;;;;;;10.43;9.63;;;;;;;;;;5074243;28;20379;-86
2022/09/25 19:26:05;;;;;;;9.90;9.10;;;;;;;;;;5074437;28;20478;-86
2022/09/25 19:28:32;;;;;;;9.88;9.07;;;;;;;;;;5073363;28;20898;-86
2022/09/25 19:31:03;;;;;;;9.90;9.18;;;;;;;;;;5073702;28;20860;-86
2022/09/25 19:33:30;;;;;;;10.40;9.50;;;;;;;;;;5073093;28;20402;-87
2022/09/25 19:35:59;;;;;;;10.90;10.00;;;;;;;;;;5074120;28;20452;-86
2022/09/25 19:38:26;;;;;;;10.47;9.67;;;;;;;;;;5073909;28;20415;-86
2022/09/25 19:40:52;;;;;;;10.55;9.75;;;;;;;;;;5073059;28;20417;-87
2022/09/25 19:43:18;;;;;;;10.38;9.57;;;;;;;;;;5073855;28;20890;-87
2022/09/25 19:45:54;;;;;;;10.32;9.52;;;;;;;;;;5073564;28;20489;-86
2022/09/25 19:48:20;;;;;;;10.07;9.20;;;;;;;;;;5073838;28;20490;-86
2022/09/25 19:50:46;;;;;;;10.60;9.70;;;;;;;;;;5073508;28;20371;-86
2022/09/25 19:53:13;;;;;;;10.63;9.73;;;;;;;;;;5073625;28;20395;-86
2022/09/25 19:55:41;;;;;;;10.30;9.50;;;;;;;;;;5076195;28;20376;-86
2022/09/25 19:58:07;;;;;;;9.38;8.68;;;;;;;;;;5072898;28;20390;-86
2022/09/25 20:00:34;;;;;;;9.85;9.05;;;;;;;;;;5073423;28;20868;-87
2022/09/25 20:03:00;;;;;;;9.35;8.65;;;;;;;;;;5073192;28;20516;-87
2022/09/25 20:05:26;;;;;;;9.57;8.88;;;;;;;;;;4997764;28;20435;-86
2022/09/25 20:07:52;;;;;;;9.88;9.05;;;;;;;;;;4998471;28;20510;-86
2022/09/25 20:10:18;;;;;;;10.00;9.20;;;;;;;;;;5073384;28;20488;-87
2022/09/25 20:12:44;;;;;;;11.63;10.73;;;;;;;;;;5072749;28;20852;-86
2022/09/25 20:15:10;;;;;;;10.02;9.23;;;;;;;;;;5073107;28;20391;-87
2022/09/25 20:17:36;;;;;;;9.90;9.00;;;;;;;;;;5073162;28;20394;-86
2022/09/25 20:20:02;;;;;;;10.32;9.30;;;;;;;;;;5072965;28;20458;-86